sensor_id;sensor_type;location;lat;lon;timestamp;P1;durP1;ratioP1;P2;durP2;ratioP2
73084;SDS011;62974;49.460;10.892;2023-06-10T00:02:20;6.85;;;4.20;;
73084;SDS011;62974;49.460;10.892;2023-06-10T00:04:48;6.60;;;4.10;;
73084;SDS011;62974;49.460;10.892;2023-06-10T00:07:16;7.50;;;4.22;;
73084;SDS011;62974;49.460;10.892;2023-06-10T00:09:45;6.00;;;3.88;;
73084;SDS011;62974;49.460;10.892;2023-06-10T00:12:12;4.93;;;3.75;;
73084;SDS011;62974;49.460;10.892;2023-06-10T00:14:41;5.60;;;3.92;;
73084;SDS011;62974;49.460;10.892;2023-06-10T00:17:08;5.38;;;3.95;;
73084;SDS011;62974;49.460;10.892;2023-06-10T00:19:36;4.45;;;3.72;;
73084;SDS011;62974;49.460;10.892;2023-06-10T00:22:07;5.95;;;3.88;;
73084;SDS011;62974;49.460;10.892;2023-06-10T00:24:37;6.78;;;4.35;;
73084;SDS011;62974;49.460;10.892;2023-06-10T00:29:34;5.55;;;3.85;;
73084;SDS011;62974;49.460;10.892;2023-06-10T00:32:01;6.05;;;4.07;;
73084;SDS011;62974;49.460;10.892;2023-06-10T00:34:30;6.07;;;3.85;;
73084;SDS011;62974;49.460;10.892;2023-06-10T00:36:58;5.30;;;3.75;;
73084;SDS011;62974;49.460;10.892;2023-06-10T00:39:25;5.72;;;3.90;;
73084;SDS011;62974;49.460;10.892;2023-06-10T00:41:53;5.70;;;4.40;;
73084;SDS011;62974;49.460;10.892;2023-06-10T00:44:22;6.47;;;3.92;;
73084;SDS011;62974;49.460;10.892;2023-06-10T00:46:49;6.22;;;3.88;;
73084;SDS011;62974;49.460;10.892;2023-06-10T00:49:19;5.45;;;3.90;;
73084;SDS011;62974;49.460;10.892;2023-06-10T00:51:46;7.15;;;3.95;;
73084;SDS011;62974;49.460;10.892;2023-06-10T00:54:14;5.18;;;4.07;;
73084;SDS011;62974;49.460;10.892;2023-06-10T00:56:42;7.03;;;4.65;;
73084;SDS011;62974;49.460;10.892;2023-06-10T00:59:10;6.72;;;4.30;;
73084;SDS011;62974;49.460;10.892;2023-06-10T01:01:41;6.10;;;4.38;;
73084;SDS011;62974;49.460;10.892;2023-06-10T01:04:09;7.57;;;4.40;;
73084;SDS011;62974;49.460;10.892;2023-06-10T01:06:41;9.85;;;4.35;;
73084;SDS011;62974;49.460;10.892;2023-06-10T01:09:18;6.68;;;4.40;;
73084;SDS011;62974;49.460;10.892;2023-06-10T01:11:52;6.68;;;4.38;;
73084;SDS011;62974;49.460;10.892;2023-06-10T01:14:25;10.73;;;4.80;;
73084;SDS011;62974;49.460;10.892;2023-06-10T01:16:54;8.25;;;5.00;;
73084;SDS011;62974;49.460;10.892;2023-06-10T01:19:23;6.30;;;4.47;;
73084;SDS011;62974;49.460;10.892;2023-06-10T01:21:52;6.50;;;4.82;;
73084;SDS011;62974;49.460;10.892;2023-06-10T01:24:21;6.72;;;4.50;;
73084;SDS011;62974;49.460;10.892;2023-06-10T01:26:49;8.05;;;5.07;;
73084;SDS011;62974;49.460;10.892;2023-06-10T01:29:18;7.85;;;4.60;;
73084;SDS011;62974;49.460;10.892;2023-06-10T01:31:51;9.20;;;4.70;;
73084;SDS011;62974;49.460;10.892;2023-06-10T01:34:27;6.15;;;4.93;;
73084;SDS011;62974;49.460;10.892;2023-06-10T01:36:59;8.70;;;5.22;;
73084;SDS011;62974;49.460;10.892;2023-06-10T01:39:27;7.10;;;5.10;;
73084;SDS011;62974;49.460;10.892;2023-06-10T01:41:55;5.57;;;4.38;;
73084;SDS011;62974;49.460;10.892;2023-06-10T01:46:51;6.10;;;4.03;;
73084;SDS011;62974;49.460;10.892;2023-06-10T01:49:18;7.15;;;4.50;;
73084;SDS011;62974;49.460;10.892;2023-06-10T01:51:48;8.75;;;4.43;;
73084;SDS011;62974;49.460;10.892;2023-06-10T01:54:17;7.32;;;4.45;;
73084;SDS011;62974;49.460;10.892;2023-06-10T01:56:44;6.40;;;4.38;;
73084;SDS011;62974;49.460;10.892;2023-06-10T01:59:12;5.93;;;4.95;;
73084;SDS011;62974;49.460;10.892;2023-06-10T02:01:39;5.65;;;4.38;;
73084;SDS011;62974;49.460;10.892;2023-06-10T02:04:07;7.25;;;4.68;;
73084;SDS011;62974;49.460;10.892;2023-06-10T02:06:34;6.93;;;4.78;;
73084;SDS011;62974;49.460;10.892;2023-06-10T02:09:03;6.38;;;4.90;;
73084;SDS011;62974;49.460;10.892;2023-06-10T02:11:32;7.88;;;4.90;;
73084;SDS011;62974;49.460;10.892;2023-06-10T02:14:00;8.48;;;5.32;;
73084;SDS011;62974;49.460;10.892;2023-06-10T02:16:28;7.15;;;4.55;;
73084;SDS011;62974;49.460;10.892;2023-06-10T02:18:55;6.63;;;4.93;;
73084;SDS011;62974;49.460;10.892;2023-06-10T02:23:51;5.78;;;4.68;;
73084;SDS011;62974;49.460;10.892;2023-06-10T02:26:19;6.45;;;4.55;;
73084;SDS011;62974;49.460;10.892;2023-06-10T02:31:15;6.18;;;4.50;;
73084;SDS011;62974;49.460;10.892;2023-06-10T02:33:44;7.93;;;4.45;;
73084;SDS011;62974;49.460;10.892;2023-06-10T02:36:12;6.55;;;4.30;;
73084;SDS011;62974;49.460;10.892;2023-06-10T02:38:41;8.52;;;5.20;;
73084;SDS011;62974;49.460;10.892;2023-06-10T02:41:09;9.20;;;5.55;;
73084;SDS011;62974;49.460;10.892;2023-06-10T02:43:36;6.93;;;4.43;;
73084;SDS011;62974;49.460;10.892;2023-06-10T02:46:06;8.43;;;4.85;;
73084;SDS011;62974;49.460;10.892;2023-06-10T02:48:40;5.18;;;4.15;;
73084;SDS011;62974;49.460;10.892;2023-06-10T02:51:09;5.55;;;4.38;;
73084;SDS011;62974;49.460;10.892;2023-06-10T02:53:36;8.75;;;4.47;;
73084;SDS011;62974;49.460;10.892;2023-06-10T02:56:04;6.07;;;4.43;;
73084;SDS011;62974;49.460;10.892;2023-06-10T02:58:32;7.53;;;4.30;;
73084;SDS011;62974;49.460;10.892;2023-06-10T03:00:59;6.82;;;4.28;;
73084;SDS011;62974;49.460;10.892;2023-06-10T03:03:28;5.40;;;4.07;;
73084;SDS011;62974;49.460;10.892;2023-06-10T03:05:56;5.65;;;4.00;;
73084;SDS011;62974;49.460;10.892;2023-06-10T03:08:25;7.00;;;5.07;;
73084;SDS011;62974;49.460;10.892;2023-06-10T03:10:52;6.03;;;4.18;;
73084;SDS011;62974;49.460;10.892;2023-06-10T03:13:20;6.18;;;4.68;;
73084;SDS011;62974;49.460;10.892;2023-06-10T03:15:47;6.22;;;4.82;;
73084;SDS011;62974;49.460;10.892;2023-06-10T03:18:15;6.70;;;4.15;;
73084;SDS011;62974;49.460;10.892;2023-06-10T03:20:44;5.90;;;3.95;;
73084;SDS011;62974;49.460;10.892;2023-06-10T03:23:12;7.85;;;4.32;;
73084;SDS011;62974;49.460;10.892;2023-06-10T03:25:39;7.55;;;5.40;;
73084;SDS011;62974;49.460;10.892;2023-06-10T03:28:07;6.78;;;4.22;;
73084;SDS011;62974;49.460;10.892;2023-06-10T03:30:34;6.50;;;4.65;;
73084;SDS011;62974;49.460;10.892;2023-06-10T03:33:02;6.00;;;4.63;;
73084;SDS011;62974;49.460;10.892;2023-06-10T03:35:30;6.10;;;4.28;;
73084;SDS011;62974;49.460;10.892;2023-06-10T03:37:59;5.82;;;4.13;;
73084;SDS011;62974;49.460;10.892;2023-06-10T03:40:26;8.35;;;5.13;;
73084;SDS011;62974;49.460;10.892;2023-06-10T03:42:54;8.88;;;5.28;;
73084;SDS011;62974;49.460;10.892;2023-06-10T03:45:21;7.65;;;5.43;;
73084;SDS011;62974;49.460;10.892;2023-06-10T03:47:50;7.65;;;4.78;;
73084;SDS011;62974;49.460;10.892;2023-06-10T03:50:18;7.85;;;4.78;;
73084;SDS011;62974;49.460;10.892;2023-06-10T03:52:46;7.68;;;4.93;;
73084;SDS011;62974;49.460;10.892;2023-06-10T03:55:14;7.65;;;5.35;;
73084;SDS011;62974;49.460;10.892;2023-06-10T03:57:43;7.88;;;4.90;;
73084;SDS011;62974;49.460;10.892;2023-06-10T04:00:11;8.15;;;4.95;;
73084;SDS011;62974;49.460;10.892;2023-06-10T04:02:39;7.57;;;5.43;;
73084;SDS011;62974;49.460;10.892;2023-06-10T04:05:12;6.55;;;4.85;;
73084;SDS011;62974;49.460;10.892;2023-06-10T04:07:40;6.65;;;4.90;;
73084;SDS011;62974;49.460;10.892;2023-06-10T04:10:08;7.80;;;5.32;;
73084;SDS011;62974;49.460;10.892;2023-06-10T04:12:38;7.63;;;4.95;;
73084;SDS011;62974;49.460;10.892;2023-06-10T04:15:06;8.05;;;5.10;;
73084;SDS011;62974;49.460;10.892;2023-06-10T04:17:34;8.20;;;4.85;;
73084;SDS011;62974;49.460;10.892;2023-06-10T04:20:02;9.75;;;5.10;;
73084;SDS011;62974;49.460;10.892;2023-06-10T04:22:33;8.68;;;5.35;;
73084;SDS011;62974;49.460;10.892;2023-06-10T04:25:01;6.78;;;5.20;;
73084;SDS011;62974;49.460;10.892;2023-06-10T04:27:29;6.50;;;4.72;;
73084;SDS011;62974;49.460;10.892;2023-06-10T04:29:58;8.93;;;6.03;;
73084;SDS011;62974;49.460;10.892;2023-06-10T04:32:26;9.18;;;5.32;;
73084;SDS011;62974;49.460;10.892;2023-06-10T04:34:53;8.60;;;6.00;;
73084;SDS011;62974;49.460;10.892;2023-06-10T04:37:21;8.93;;;5.82;;
73084;SDS011;62974;49.460;10.892;2023-06-10T04:39:49;10.95;;;6.50;;
73084;SDS011;62974;49.460;10.892;2023-06-10T04:42:16;8.25;;;5.20;;
73084;SDS011;62974;49.460;10.892;2023-06-10T04:44:44;8.43;;;6.00;;
73084;SDS011;62974;49.460;10.892;2023-06-10T04:47:13;7.53;;;5.20;;
73084;SDS011;62974;49.460;10.892;2023-06-10T04:49:40;9.15;;;6.13;;
73084;SDS011;62974;49.460;10.892;2023-06-10T04:52:08;9.75;;;6.43;;
73084;SDS011;62974;49.460;10.892;2023-06-10T04:54:35;9.10;;;5.55;;
73084;SDS011;62974;49.460;10.892;2023-06-10T04:57:03;9.15;;;5.63;;
73084;SDS011;62974;49.460;10.892;2023-06-10T04:59:32;10.73;;;6.03;;
73084;SDS011;62974;49.460;10.892;2023-06-10T05:02:03;10.23;;;6.32;;
73084;SDS011;62974;49.460;10.892;2023-06-10T05:04:33;12.43;;;6.47;;
73084;SDS011;62974;49.460;10.892;2023-06-10T05:07:00;9.57;;;5.68;;
73084;SDS011;62974;49.460;10.892;2023-06-10T05:09:28;9.63;;;6.18;;
73084;SDS011;62974;49.460;10.892;2023-06-10T05:11:56;8.10;;;5.82;;
73084;SDS011;62974;49.460;10.892;2023-06-10T05:14:24;8.43;;;5.30;;
73084;SDS011;62974;49.460;10.892;2023-06-10T05:16:51;8.77;;;5.85;;
73084;SDS011;62974;49.460;10.892;2023-06-10T05:19:19;7.88;;;5.72;;
73084;SDS011;62974;49.460;10.892;2023-06-10T05:21:48;8.27;;;6.07;;
73084;SDS011;62974;49.460;10.892;2023-06-10T05:24:16;7.10;;;5.47;;
73084;SDS011;62974;49.460;10.892;2023-06-10T05:26:43;7.88;;;5.72;;
73084;SDS011;62974;49.460;10.892;2023-06-10T05:29:11;11.40;;;6.07;;
73084;SDS011;62974;49.460;10.892;2023-06-10T05:31:38;8.00;;;5.95;;
73084;SDS011;62974;49.460;10.892;2023-06-10T05:34:06;7.68;;;6.25;;
73084;SDS011;62974;49.460;10.892;2023-06-10T05:36:34;10.85;;;6.45;;
73084;SDS011;62974;49.460;10.892;2023-06-10T05:39:02;9.18;;;6.07;;
73084;SDS011;62974;49.460;10.892;2023-06-10T05:41:30;12.50;;;6.28;;
73084;SDS011;62974;49.460;10.892;2023-06-10T05:43:58;8.75;;;5.70;;
73084;SDS011;62974;49.460;10.892;2023-06-10T05:46:25;8.38;;;6.00;;
73084;SDS011;62974;49.460;10.892;2023-06-10T05:48:53;8.82;;;6.10;;
73084;SDS011;62974;49.460;10.892;2023-06-10T05:51:20;9.63;;;6.43;;
73084;SDS011;62974;49.460;10.892;2023-06-10T05:53:48;8.10;;;5.20;;
73084;SDS011;62974;49.460;10.892;2023-06-10T05:56:17;9.07;;;6.45;;
73084;SDS011;62974;49.460;10.892;2023-06-10T05:58:44;9.80;;;6.32;;
73084;SDS011;62974;49.460;10.892;2023-06-10T06:01:12;9.40;;;6.68;;
73084;SDS011;62974;49.460;10.892;2023-06-10T06:03:39;10.68;;;6.40;;
73084;SDS011;62974;49.460;10.892;2023-06-10T06:06:07;12.27;;;6.63;;
73084;SDS011;62974;49.460;10.892;2023-06-10T06:08:35;8.60;;;5.85;;
73084;SDS011;62974;49.460;10.892;2023-06-10T06:11:02;7.63;;;5.85;;
73084;SDS011;62974;49.460;10.892;2023-06-10T06:13:31;8.23;;;5.60;;
73084;SDS011;62974;49.460;10.892;2023-06-10T06:15:59;10.10;;;7.15;;
73084;SDS011;62974;49.460;10.892;2023-06-10T06:18:26;9.07;;;6.85;;
73084;SDS011;62974;49.460;10.892;2023-06-10T06:20:54;10.05;;;6.30;;
73084;SDS011;62974;49.460;10.892;2023-06-10T06:23:22;7.82;;;5.70;;
73084;SDS011;62974;49.460;10.892;2023-06-10T06:25:49;8.25;;;5.57;;
73084;SDS011;62974;49.460;10.892;2023-06-10T06:28:17;9.80;;;6.35;;
73084;SDS011;62974;49.460;10.892;2023-06-10T06:30:48;10.90;;;7.00;;
73084;SDS011;62974;49.460;10.892;2023-06-10T06:33:16;8.82;;;5.95;;
73084;SDS011;62974;49.460;10.892;2023-06-10T06:35:43;8.13;;;6.60;;
73084;SDS011;62974;49.460;10.892;2023-06-10T06:38:11;10.93;;;5.82;;
73084;SDS011;62974;49.460;10.892;2023-06-10T06:40:39;8.90;;;5.85;;
73084;SDS011;62974;49.460;10.892;2023-06-10T06:43:06;10.32;;;5.85;;
73084;SDS011;62974;49.460;10.892;2023-06-10T06:45:34;7.97;;;5.53;;
73084;SDS011;62974;49.460;10.892;2023-06-10T06:48:04;7.53;;;5.47;;
73084;SDS011;62974;49.460;10.892;2023-06-10T06:50:32;8.15;;;5.53;;
73084;SDS011;62974;49.460;10.892;2023-06-10T06:53:00;7.75;;;5.88;;
73084;SDS011;62974;49.460;10.892;2023-06-10T06:55:27;8.68;;;6.20;;
73084;SDS011;62974;49.460;10.892;2023-06-10T06:57:55;8.70;;;6.00;;
73084;SDS011;62974;49.460;10.892;2023-06-10T07:00:23;9.15;;;6.65;;
73084;SDS011;62974;49.460;10.892;2023-06-10T07:02:50;8.15;;;5.25;;
73084;SDS011;62974;49.460;10.892;2023-06-10T07:05:23;6.70;;;5.03;;
73084;SDS011;62974;49.460;10.892;2023-06-10T07:07:52;10.13;;;6.25;;
73084;SDS011;62974;49.460;10.892;2023-06-10T07:10:21;8.38;;;6.00;;
73084;SDS011;62974;49.460;10.892;2023-06-10T07:12:49;8.77;;;5.85;;
73084;SDS011;62974;49.460;10.892;2023-06-10T07:15:16;10.48;;;6.40;;
73084;SDS011;62974;49.460;10.892;2023-06-10T07:17:44;8.27;;;6.03;;
73084;SDS011;62974;49.460;10.892;2023-06-10T07:20:12;8.20;;;5.53;;
73084;SDS011;62974;49.460;10.892;2023-06-10T07:22:42;7.88;;;5.45;;
73084;SDS011;62974;49.460;10.892;2023-06-10T07:25:10;6.50;;;5.20;;
73084;SDS011;62974;49.460;10.892;2023-06-10T07:30:05;6.80;;;4.93;;
73084;SDS011;62974;49.460;10.892;2023-06-10T07:32:34;6.93;;;5.60;;
73084;SDS011;62974;49.460;10.892;2023-06-10T07:35:02;10.50;;;5.78;;
73084;SDS011;62974;49.460;10.892;2023-06-10T07:37:30;6.80;;;5.38;;
73084;SDS011;62974;49.460;10.892;2023-06-10T07:39:59;6.90;;;4.80;;
73084;SDS011;62974;49.460;10.892;2023-06-10T07:42:26;7.90;;;5.78;;
73084;SDS011;62974;49.460;10.892;2023-06-10T07:44:54;6.10;;;4.72;;
73084;SDS011;62974;49.460;10.892;2023-06-10T07:47:22;7.18;;;5.78;;
73084;SDS011;62974;49.460;10.892;2023-06-10T07:49:49;8.80;;;6.03;;
73084;SDS011;62974;49.460;10.892;2023-06-10T07:52:17;8.85;;;5.60;;
73084;SDS011;62974;49.460;10.892;2023-06-10T07:54:44;9.23;;;5.95;;
73084;SDS011;62974;49.460;10.892;2023-06-10T07:57:13;7.45;;;6.05;;
73084;SDS011;62974;49.460;10.892;2023-06-10T07:59:42;7.20;;;5.95;;
73084;SDS011;62974;49.460;10.892;2023-06-10T08:02:10;6.93;;;5.50;;
73084;SDS011;62974;49.460;10.892;2023-06-10T08:04:38;7.35;;;5.80;;
73084;SDS011;62974;49.460;10.892;2023-06-10T08:07:05;5.38;;;4.43;;
73084;SDS011;62974;49.460;10.892;2023-06-10T08:09:33;7.72;;;4.88;;
73084;SDS011;62974;49.460;10.892;2023-06-10T08:12:01;7.53;;;5.68;;
73084;SDS011;62974;49.460;10.892;2023-06-10T08:14:30;7.35;;;5.18;;
73084;SDS011;62974;49.460;10.892;2023-06-10T08:16:58;8.65;;;4.15;;
73084;SDS011;62974;49.460;10.892;2023-06-10T08:19:26;8.15;;;5.25;;
73084;SDS011;62974;49.460;10.892;2023-06-10T08:21:54;7.03;;;4.60;;
73084;SDS011;62974;49.460;10.892;2023-06-10T08:24:23;6.75;;;4.30;;
73084;SDS011;62974;49.460;10.892;2023-06-10T08:26:51;8.70;;;4.35;;
73084;SDS011;62974;49.460;10.892;2023-06-10T08:29:18;5.63;;;3.60;;
73084;SDS011;62974;49.460;10.892;2023-06-10T08:31:47;5.28;;;3.67;;
73084;SDS011;62974;49.460;10.892;2023-06-10T08:34:15;4.38;;;3.22;;
73084;SDS011;62974;49.460;10.892;2023-06-10T08:36:43;4.38;;;3.45;;
73084;SDS011;62974;49.460;10.892;2023-06-10T08:39:11;4.45;;;3.90;;
73084;SDS011;62974;49.460;10.892;2023-06-10T08:41:40;4.80;;;3.22;;
73084;SDS011;62974;49.460;10.892;2023-06-10T08:44:12;3.65;;;3.00;;
73084;SDS011;62974;49.460;10.892;2023-06-10T08:46:45;4.00;;;3.20;;
73084;SDS011;62974;49.460;10.892;2023-06-10T08:49:16;4.63;;;3.00;;
73084;SDS011;62974;49.460;10.892;2023-06-10T08:51:47;6.43;;;3.22;;
73084;SDS011;62974;49.460;10.892;2023-06-10T08:54:18;5.78;;;3.45;;
73084;SDS011;62974;49.460;10.892;2023-06-10T08:56:49;4.72;;;3.03;;
73084;SDS011;62974;49.460;10.892;2023-06-10T08:59:18;4.15;;;3.20;;
73084;SDS011;62974;49.460;10.892;2023-06-10T09:01:47;5.10;;;3.70;;
73084;SDS011;62974;49.460;10.892;2023-06-10T09:04:16;5.00;;;3.13;;
73084;SDS011;62974;49.460;10.892;2023-06-10T09:06:44;4.35;;;3.17;;
73084;SDS011;62974;49.460;10.892;2023-06-10T09:09:14;3.95;;;3.30;;
73084;SDS011;62974;49.460;10.892;2023-06-10T09:11:42;3.92;;;2.85;;
73084;SDS011;62974;49.460;10.892;2023-06-10T09:14:10;4.03;;;2.70;;
73084;SDS011;62974;49.460;10.892;2023-06-10T09:16:39;3.88;;;2.38;;
73084;SDS011;62974;49.460;10.892;2023-06-10T09:19:08;4.22;;;3.50;;
73084;SDS011;62974;49.460;10.892;2023-06-10T09:21:37;4.07;;;2.47;;
73084;SDS011;62974;49.460;10.892;2023-06-10T09:24:05;3.22;;;2.50;;
73084;SDS011;62974;49.460;10.892;2023-06-10T09:29:02;3.63;;;2.50;;
73084;SDS011;62974;49.460;10.892;2023-06-10T09:31:32;3.47;;;2.95;;
73084;SDS011;62974;49.460;10.892;2023-06-10T09:34:06;3.47;;;2.88;;
73084;SDS011;62974;49.460;10.892;2023-06-10T09:36:35;3.92;;;2.70;;
73084;SDS011;62974;49.460;10.892;2023-06-10T09:39:05;3.53;;;2.60;;
73084;SDS011;62974;49.460;10.892;2023-06-10T09:41:41;3.22;;;2.20;;
73084;SDS011;62974;49.460;10.892;2023-06-10T09:44:11;2.88;;;2.50;;
73084;SDS011;62974;49.460;10.892;2023-06-10T09:46:41;4.13;;;2.85;;
73084;SDS011;62974;49.460;10.892;2023-06-10T09:49:09;3.70;;;2.80;;
73084;SDS011;62974;49.460;10.892;2023-06-10T09:51:38;4.60;;;3.20;;
73084;SDS011;62974;49.460;10.892;2023-06-10T09:54:16;3.88;;;2.97;;
73084;SDS011;62974;49.460;10.892;2023-06-10T09:56:46;3.70;;;2.78;;
73084;SDS011;62974;49.460;10.892;2023-06-10T09:59:14;3.53;;;2.58;;
73084;SDS011;62974;49.460;10.892;2023-06-10T10:01:42;4.13;;;3.30;;
73084;SDS011;62974;49.460;10.892;2023-06-10T10:06:38;2.85;;;2.60;;
73084;SDS011;62974;49.460;10.892;2023-06-10T10:09:06;4.50;;;3.35;;
73084;SDS011;62974;49.460;10.892;2023-06-10T10:11:35;3.55;;;2.92;;
73084;SDS011;62974;49.460;10.892;2023-06-10T10:16:35;3.92;;;3.15;;
73084;SDS011;62974;49.460;10.892;2023-06-10T10:19:07;3.80;;;2.90;;
73084;SDS011;62974;49.460;10.892;2023-06-10T10:21:39;4.28;;;3.15;;
73084;SDS011;62974;49.460;10.892;2023-06-10T10:24:18;4.15;;;3.30;;
73084;SDS011;62974;49.460;10.892;2023-06-10T10:26:50;5.90;;;3.33;;
73084;SDS011;62974;49.460;10.892;2023-06-10T10:29:20;4.22;;;3.20;;
73084;SDS011;62974;49.460;10.892;2023-06-10T10:31:52;4.10;;;3.42;;
73084;SDS011;62974;49.460;10.892;2023-06-10T10:34:25;3.20;;;2.45;;
73084;SDS011;62974;49.460;10.892;2023-06-10T10:36:59;4.50;;;3.28;;
73084;SDS011;62974;49.460;10.892;2023-06-10T10:39:26;4.88;;;3.60;;
73084;SDS011;62974;49.460;10.892;2023-06-10T10:41:55;3.80;;;2.95;;
73084;SDS011;62974;49.460;10.892;2023-06-10T10:44:24;4.05;;;3.22;;
73084;SDS011;62974;49.460;10.892;2023-06-10T10:46:52;4.07;;;3.15;;
73084;SDS011;62974;49.460;10.892;2023-06-10T10:49:20;4.38;;;3.28;;
73084;SDS011;62974;49.460;10.892;2023-06-10T10:51:56;4.97;;;3.22;;
73084;SDS011;62974;49.460;10.892;2023-06-10T10:54:29;4.18;;;3.10;;
73084;SDS011;62974;49.460;10.892;2023-06-10T10:57:10;3.85;;;3.13;;
73084;SDS011;62974;49.460;10.892;2023-06-10T10:59:43;3.80;;;3.10;;
73084;SDS011;62974;49.460;10.892;2023-06-10T11:02:14;3.80;;;2.83;;
73084;SDS011;62974;49.460;10.892;2023-06-10T11:04:47;4.15;;;3.20;;
73084;SDS011;62974;49.460;10.892;2023-06-10T11:07:18;3.83;;;3.38;;
73084;SDS011;62974;49.460;10.892;2023-06-10T11:09:58;3.60;;;3.00;;
73084;SDS011;62974;49.460;10.892;2023-06-10T11:12:39;3.45;;;2.88;;
73084;SDS011;62974;49.460;10.892;2023-06-10T11:15:21;4.43;;;3.10;;
73084;SDS011;62974;49.460;10.892;2023-06-10T11:18:09;3.58;;;3.08;;
73084;SDS011;62974;49.460;10.892;2023-06-10T11:20:41;3.75;;;2.78;;
73084;SDS011;62974;49.460;10.892;2023-06-10T11:23:24;4.40;;;2.70;;
73084;SDS011;62974;49.460;10.892;2023-06-10T11:26:10;3.95;;;3.17;;
73084;SDS011;62974;49.460;10.892;2023-06-10T11:28:39;4.47;;;3.15;;
73084;SDS011;62974;49.460;10.892;2023-06-10T11:31:06;4.55;;;3.00;;
73084;SDS011;62974;49.460;10.892;2023-06-10T11:33:34;5.60;;;3.17;;
73084;SDS011;62974;49.460;10.892;2023-06-10T11:36:06;5.03;;;2.95;;
73084;SDS011;62974;49.460;10.892;2023-06-10T11:38:34;4.50;;;3.15;;
73084;SDS011;62974;49.460;10.892;2023-06-10T11:41:02;4.50;;;3.53;;
73084;SDS011;62974;49.460;10.892;2023-06-10T11:43:31;4.43;;;3.55;;
73084;SDS011;62974;49.460;10.892;2023-06-10T11:45:58;4.50;;;3.05;;
73084;SDS011;62974;49.460;10.892;2023-06-10T11:48:26;3.72;;;3.20;;
73084;SDS011;62974;49.460;10.892;2023-06-10T11:50:54;4.43;;;3.40;;
73084;SDS011;62974;49.460;10.892;2023-06-10T11:53:22;4.45;;;3.53;;
73084;SDS011;62974;49.460;10.892;2023-06-10T11:55:49;4.43;;;2.95;;
73084;SDS011;62974;49.460;10.892;2023-06-10T11:58:18;3.88;;;3.00;;
73084;SDS011;62974;49.460;10.892;2023-06-10T12:00:49;4.10;;;3.17;;
73084;SDS011;62974;49.460;10.892;2023-06-10T12:03:17;5.45;;;3.13;;
73084;SDS011;62974;49.460;10.892;2023-06-10T12:05:55;4.63;;;3.45;;
73084;SDS011;62974;49.460;10.892;2023-06-10T12:08:23;3.92;;;3.20;;
73084;SDS011;62974;49.460;10.892;2023-06-10T12:10:51;3.65;;;2.63;;
73084;SDS011;62974;49.460;10.892;2023-06-10T12:15:48;2.92;;;2.47;;
73084;SDS011;62974;49.460;10.892;2023-06-10T12:18:16;2.67;;;2.00;;
73084;SDS011;62974;49.460;10.892;2023-06-10T12:20:44;3.33;;;2.50;;
73084;SDS011;62974;49.460;10.892;2023-06-10T12:23:12;3.63;;;2.70;;
73084;SDS011;62974;49.460;10.892;2023-06-10T12:25:48;4.68;;;2.30;;
73084;SDS011;62974;49.460;10.892;2023-06-10T12:28:20;3.45;;;2.47;;
73084;SDS011;62974;49.460;10.892;2023-06-10T12:30:50;3.60;;;2.63;;
73084;SDS011;62974;49.460;10.892;2023-06-10T12:33:17;4.78;;;2.70;;
73084;SDS011;62974;49.460;10.892;2023-06-10T12:35:49;4.50;;;2.75;;
73084;SDS011;62974;49.460;10.892;2023-06-10T12:38:21;3.45;;;2.67;;
73084;SDS011;62974;49.460;10.892;2023-06-10T12:40:50;3.13;;;2.47;;
73084;SDS011;62974;49.460;10.892;2023-06-10T12:43:21;4.10;;;2.97;;
73084;SDS011;62974;49.460;10.892;2023-06-10T12:45:51;3.35;;;2.70;;
73084;SDS011;62974;49.460;10.892;2023-06-10T12:48:19;4.03;;;2.10;;
73084;SDS011;62974;49.460;10.892;2023-06-10T12:50:50;3.28;;;2.25;;
73084;SDS011;62974;49.460;10.892;2023-06-10T12:53:19;3.08;;;2.35;;
73084;SDS011;62974;49.460;10.892;2023-06-10T12:55:47;3.20;;;2.08;;
73084;SDS011;62974;49.460;10.892;2023-06-10T12:58:14;0.80;;;0.73;;
73084;SDS011;62974;49.460;10.892;2023-06-10T13:00:42;3.35;;;2.50;;
73084;SDS011;62974;49.460;10.892;2023-06-10T13:03:11;3.97;;;2.50;;
73084;SDS011;62974;49.460;10.892;2023-06-10T13:05:39;3.33;;;2.80;;
73084;SDS011;62974;49.460;10.892;2023-06-10T13:10:36;3.45;;;2.55;;
73084;SDS011;62974;49.460;10.892;2023-06-10T13:13:05;3.20;;;2.28;;
73084;SDS011;62974;49.460;10.892;2023-06-10T13:15:35;3.15;;;2.58;;
73084;SDS011;62974;49.460;10.892;2023-06-10T13:18:09;3.35;;;1.65;;
73084;SDS011;62974;49.460;10.892;2023-06-10T13:20:38;3.42;;;2.70;;
73084;SDS011;62974;49.460;10.892;2023-06-10T13:23:06;3.67;;;2.88;;
73084;SDS011;62974;49.460;10.892;2023-06-10T13:25:33;3.25;;;2.78;;
73084;SDS011;62974;49.460;10.892;2023-06-10T13:28:01;3.78;;;3.03;;
73084;SDS011;62974;49.460;10.892;2023-06-10T13:30:29;5.43;;;2.80;;
73084;SDS011;62974;49.460;10.892;2023-06-10T13:32:57;5.05;;;2.60;;
73084;SDS011;62974;49.460;10.892;2023-06-10T13:35:24;3.33;;;2.40;;
73084;SDS011;62974;49.460;10.892;2023-06-10T13:37:53;3.42;;;2.60;;
73084;SDS011;62974;49.460;10.892;2023-06-10T13:40:21;3.45;;;2.90;;
73084;SDS011;62974;49.460;10.892;2023-06-10T13:45:17;3.72;;;2.67;;
73084;SDS011;62974;49.460;10.892;2023-06-10T13:47:44;3.22;;;2.78;;
73084;SDS011;62974;49.460;10.892;2023-06-10T13:50:12;3.63;;;2.95;;
73084;SDS011;62974;49.460;10.892;2023-06-10T13:52:40;3.78;;;2.88;;
73084;SDS011;62974;49.460;10.892;2023-06-10T13:55:09;3.03;;;2.70;;
73084;SDS011;62974;49.460;10.892;2023-06-10T13:57:37;5.07;;;2.80;;
73084;SDS011;62974;49.460;10.892;2023-06-10T14:00:05;2.45;;;2.08;;
73084;SDS011;62974;49.460;10.892;2023-06-10T14:02:33;2.97;;;2.47;;
73084;SDS011;62974;49.460;10.892;2023-06-10T14:05:01;3.50;;;2.80;;
73084;SDS011;62974;49.460;10.892;2023-06-10T14:07:28;3.08;;;2.30;;
73084;SDS011;62974;49.460;10.892;2023-06-10T14:09:56;3.40;;;2.80;;
73084;SDS011;62974;49.460;10.892;2023-06-10T14:12:26;3.45;;;2.67;;
73084;SDS011;62974;49.460;10.892;2023-06-10T14:14:53;2.78;;;2.20;;
73084;SDS011;62974;49.460;10.892;2023-06-10T14:17:21;6.43;;;2.22;;
73084;SDS011;62974;49.460;10.892;2023-06-10T14:19:49;3.28;;;2.40;;
73084;SDS011;62974;49.460;10.892;2023-06-10T14:22:17;4.45;;;2.10;;
73084;SDS011;62974;49.460;10.892;2023-06-10T14:24:44;4.30;;;2.92;;
73084;SDS011;62974;49.460;10.892;2023-06-10T14:27:13;4.95;;;3.35;;
73084;SDS011;62974;49.460;10.892;2023-06-10T14:29:42;5.15;;;3.42;;
73084;SDS011;62974;49.460;10.892;2023-06-10T14:32:10;3.97;;;3.08;;
73084;SDS011;62974;49.460;10.892;2023-06-10T14:34:37;4.28;;;3.30;;
73084;SDS011;62974;49.460;10.892;2023-06-10T14:39:34;5.00;;;3.30;;
73084;SDS011;62974;49.460;10.892;2023-06-10T14:42:02;5.10;;;3.53;;
73084;SDS011;62974;49.460;10.892;2023-06-10T14:44:30;5.18;;;3.40;;
73084;SDS011;62974;49.460;10.892;2023-06-10T14:46:59;3.65;;;2.85;;
73084;SDS011;62974;49.460;10.892;2023-06-10T14:49:26;4.68;;;2.95;;
73084;SDS011;62974;49.460;10.892;2023-06-10T14:51:54;4.60;;;3.40;;
73084;SDS011;62974;49.460;10.892;2023-06-10T14:54:21;3.75;;;3.17;;
73084;SDS011;62974;49.460;10.892;2023-06-10T14:56:49;4.25;;;3.30;;
73084;SDS011;62974;49.460;10.892;2023-06-10T14:59:16;4.30;;;3.30;;
73084;SDS011;62974;49.460;10.892;2023-06-10T15:01:44;4.25;;;3.38;;
73084;SDS011;62974;49.460;10.892;2023-06-10T15:04:13;4.15;;;3.22;;
73084;SDS011;62974;49.460;10.892;2023-06-10T15:06:41;4.90;;;3.67;;
73084;SDS011;62974;49.460;10.892;2023-06-10T15:09:09;4.60;;;3.47;;
73084;SDS011;62974;49.460;10.892;2023-06-10T15:11:36;4.85;;;3.60;;
73084;SDS011;62974;49.460;10.892;2023-06-10T15:14:04;5.10;;;3.72;;